Time;durP1;ratioP1;P1;durP2;ratioP2;P2;SDS_P1;SDS_P2;PMS_P1;PMS_P2;Temp;Humidity;BMP_temperature;BMP_pressure;BME280_temperature;BME280_humidity;BME280_pressure;Samples;Min_cycle;Max_cycle;Signal;HPM_P1;HPM_P2
2022/05/08 00:01:00;;;;;;;7.27;4.23;;;;;;;12.13;54.48;100153.69;5071085;28;20187;-61
2022/05/08 00:03:27;;;;;;;8.50;4.23;;;;;;;12.11;54.94;100149.34;5071016;28;20196;-60
2022/05/08 00:05:54;;;;;;;5.37;4.20;;;;;;;12.11;55.00;100147.63;5071225;28;20581;-60
2022/05/08 00:08:21;;;;;;;6.33;4.80;;;;;;;12.15;54.61;100151.13;5070906;28;20199;-61
2022/05/08 00:10:49;;;;;;;5.07;4.27;;;;;;;12.14;54.62;100147.66;5071028;28;20653;-60
2022/05/08 00:13:16;;;;;;;9.13;4.50;;;;;;;12.15;54.61;100148.53;5071077;28;20184;-60
2022/05/08 00:15:43;;;;;;;11.33;4.73;;;;;;;12.14;54.63;100144.25;5070770;28;20206;-60
2022/05/08 00:18:10;;;;;;;14.10;5.50;;;;;;;12.11;54.47;100142.47;5070174;28;20215;-61
2022/05/08 00:20:36;;;;;;;12.67;6.30;;;;;;;12.13;54.57;100135.66;5070775;28;20192;-61
2022/05/08 00:23:03;;;;;;;9.20;6.30;;;;;;;12.08;54.48;100133.81;5070645;28;20192;-61
2022/05/08 00:25:30;;;;;;;11.00;5.95;;;;;;;12.12;55.20;100144.19;5069853;28;20442;-61
2022/05/08 00:27:58;;;;;;;8.50;4.90;;;;;;;12.23;54.39;100144.41;5070918;28;20199;-60
2022/05/08 00:30:25;;;;;;;5.23;4.70;;;;;;;12.23;54.32;100134.97;5070939;28;20200;-60
2022/05/08 00:32:52;;;;;;;5.40;4.33;;;;;;;12.15;54.21;100131.38;5070461;28;20214;-60
2022/05/08 00:35:19;;;;;;;8.73;4.67;;;;;;;12.18;54.70;100136.59;5070727;28;20685;-60
2022/05/08 00:37:46;;;;;;;8.63;4.70;;;;;;;12.20;54.42;100131.47;5070273;28;20747;-60
2022/05/08 00:40:13;;;;;;;5.97;4.20;;;;;;;12.17;54.51;100129.69;5070538;28;20195;-61
2022/05/08 00:42:41;;;;;;;8.57;4.70;;;;;;;12.20;54.67;100126.31;5070725;28;20282;-60
2022/05/08 00:45:10;;;;;;;5.95;4.30;;;;;;;12.11;54.50;100126.16;5070425;28;20443;-61
2022/05/08 00:47:38;;;;;;;5.87;3.90;;;;;;;12.14;55.10;100132.22;5070334;28;20187;-59
2022/05/08 00:50:06;;;;;;;7.00;4.80;;;;;;;12.15;54.95;100135.66;5070623;28;20585;-59
2022/05/08 00:52:35;;;;;;;8.33;4.20;;;;;;;12.11;55.08;100124.44;5070304;28;20179;-61
2022/05/08 00:55:03;;;;;;;6.10;4.43;;;;;;;12.08;55.17;100129.53;5070498;28;20217;-59
2022/05/08 00:57:31;;;;;;;6.00;4.77;;;;;;;12.06;56.01;100131.19;5070510;28;20302;-60
2022/05/08 01:00:03;;;;;;;6.73;4.80;;;;;;;12.06;55.78;100135.50;5070487;28;20270;-61
2022/05/08 01:02:33;;;;;;;7.73;5.27;;;;;;;11.99;56.34;100128.47;5070338;28;20709;-61
2022/05/08 01:05:00;;;;;;;8.73;5.40;;;;;;;11.95;56.14;100136.97;5070321;28;20196;-61
2022/05/08 01:07:27;;;;;;;10.23;5.53;;;;;;;11.92;56.88;100135.19;5070204;28;20195;-61
2022/05/08 01:09:55;;;;;;;6.83;5.53;;;;;;;11.88;57.11;100135.97;5070409;28;20660;-61
2022/05/08 01:12:24;;;;;;;8.40;6.37;;;;;;;11.87;57.37;100135.97;5070692;28;20303;-61
2022/05/08 01:15:15;;;;;;;8.07;6.57;;;;;;;11.85;57.51;100135.91;5070411;28;20484;-61
2022/05/08 01:17:44;;;;;;;10.77;6.63;;;;;;;11.83;57.97;100135.88;5070102;28;20215;-61
2022/05/08 01:20:11;;;;;;;9.53;6.67;;;;;;;11.80;57.96;100132.38;5070375;28;20202;-60
2022/05/08 01:22:40;;;;;;;12.07;7.73;;;;;;;11.75;58.29;100126.25;5069942;28;20191;-60
2022/05/08 01:25:07;;;;;;;10.97;6.93;;;;;;;11.70;58.77;100133.03;5070341;28;20245;-60
2022/05/08 01:27:34;;;;;;;11.33;7.27;;;;;;;11.73;58.79;100133.06;5068290;28;20188;-61
2022/05/08 01:30:02;;;;;;;11.17;6.67;;;;;;;11.65;59.00;100130.28;5072770;28;20199;-60
2022/05/08 01:32:29;;;;;;;12.60;6.70;;;;;;;11.67;59.02;100135.50;5067503;28;20560;-56
2022/05/08 01:34:56;;;;;;;9.70;7.03;;;;;;;11.63;59.41;100134.53;5073409;28;20677;-56
2022/05/08 01:37:23;;;;;;;10.00;6.53;;;;;;;11.63;59.62;100134.53;5069496;28;20204;-57
2022/05/08 01:39:51;;;;;;;9.17;6.37;;;;;;;11.55;60.01;100123.22;5072406;28;20611;-56
2022/05/08 01:42:18;;;;;;;6.63;5.80;;;;;;;11.54;59.86;100123.16;5072612;28;20218;-55
2022/05/08 01:44:45;;;;;;;9.38;6.72;;;;;;;11.58;60.45;100117.25;5072263;28;20430;-55
2022/05/08 01:49:57;;;;;;;10.00;6.73;;;;;;;11.63;60.09;100125.94;5071726;28;20253;-55
2022/05/08 01:52:25;;;;;;;10.63;6.23;;;;;;;11.59;60.42;100124.16;5071248;28;20226;-55
2022/05/08 01:54:53;;;;;;;7.77;6.60;;;;;;;11.55;60.62;100125.78;5054650;28;20196;-55
2022/05/08 01:57:20;;;;;;;9.67;6.53;;;;;;;11.57;60.46;100136.09;5053288;28;20220;-56
2022/05/08 01:59:47;;;;;;;7.23;5.70;;;;;;;11.52;60.95;100120.56;5053722;28;20207;-55
2022/05/08 02:02:14;;;;;;;15.57;6.37;;;;;;;11.47;61.14;100126.44;5053219;28;20207;-55
2022/05/08 02:04:41;;;;;;;12.43;6.65;;;;;;;11.44;61.72;100129.81;5052880;28;20524;-55
2022/05/08 02:07:08;;;;;;;8.67;5.80;;;;;;;11.51;61.04;100126.53;5053380;28;20242;-55
2022/05/08 02:09:35;;;;;;;10.37;6.13;;;;;;;11.51;61.63;100121.38;5053128;28;20192;-55
2022/05/08 02:12:04;;;;;;;9.43;6.10;;;;;;;11.51;61.48;100120.53;5053070;28;20195;-55
2022/05/08 02:14:31;;;;;;;11.23;6.50;;;;;;;11.51;61.48;100123.97;5059746;28;20567;-56
2022/05/08 02:16:57;;;;;;;10.53;7.27;;;;;;;11.51;61.38;100125.69;5073181;28;20643;-56
2022/05/08 02:19:24;;;;;;;7.67;6.10;;;;;;;11.41;61.88;100132.31;5073197;28;20198;-56
2022/05/08 02:21:51;;;;;;;11.43;6.90;;;;;;;11.21;62.37;100119.00;5072874;28;20188;-56
2022/05/08 02:24:18;;;;;;;14.73;7.57;;;;;;;11.13;63.39;100124.78;5072694;28;20191;-55
2022/05/08 02:26:44;;;;;;;9.67;6.63;;;;;;;11.05;63.10;100126.31;5072857;28;20191;-56
2022/05/08 02:29:13;;;;;;;11.70;7.07;;;;;;;10.76;64.75;100124.72;5072723;28;20195;-55
2022/05/08 02:31:39;;;;;;;9.00;6.80;;;;;;;10.77;65.29;100129.88;5072704;28;20191;-55
2022/05/08 02:34:06;;;;;;;10.43;7.10;;;;;;;10.59;65.62;100132.00;5072512;28;20192;-56
2022/05/08 02:36:33;;;;;;;8.33;6.83;;;;;;;10.45;66.44;100129.06;5072695;28;20219;-55
2022/05/08 02:39:00;;;;;;;12.77;6.97;;;;;;;10.15;67.59;100123.09;5072419;28;20232;-55
2022/05/08 02:41:27;;;;;;;9.77;6.30;;;;;;;9.94;68.62;100125.03;5071837;28;20191;-55
2022/05/08 02:43:54;;;;;;;8.60;6.57;;;;;;;9.68;69.27;100121.69;5072560;28;20649;-55
2022/05/08 02:46:22;;;;;;;10.40;6.57;;;;;;;9.78;69.22;100117.72;5072729;28;20218;-55
2022/05/08 02:48:49;;;;;;;11.50;7.33;;;;;;;9.74;69.35;100129.56;5072501;28;20654;-55
2022/05/08 02:51:16;;;;;;;7.43;6.73;;;;;;;9.79;69.61;100134.81;5072407;28;20191;-56
2022/05/08 02:53:43;;;;;;;9.33;6.90;;;;;;;9.70;69.99;100137.13;5072403;28;20253;-56
2022/05/08 02:58:54;;;;;;;11.97;8.33;;;;;;;9.34;71.63;100124.03;5072431;28;20251;-56
2022/05/08 03:01:22;;;;;;;9.40;7.37;;;;;;;9.46;71.30;100135.56;5070409;28;20684;-56
2022/05/08 03:03:49;;;;;;;14.03;7.07;;;;;;;9.27;71.71;100140.06;5072355;28;20196;-56
2022/05/08 03:06:16;;;;;;;9.60;7.47;;;;;;;9.25;71.91;100141.72;5072157;28;20694;-56
2022/05/08 03:08:44;;;;;;;10.73;7.20;;;;;;;9.22;72.01;100142.50;5072105;28;20688;-56
2022/05/08 03:11:29;;;;;;;8.60;7.67;;;;;;;9.23;72.27;100140.81;5071971;28;20199;-56
2022/05/08 03:13:57;;;;;;;12.07;7.30;;;;;;;9.15;72.03;100144.78;5071906;28;20202;-56
2022/05/08 03:16:28;;;;;;;12.00;8.27;;;;;;;9.14;71.94;100135.38;5071663;28;20198;-56
2022/05/08 03:18:55;;;;;;;9.50;7.63;;;;;;;9.19;72.11;100147.53;5071722;28;20686;-56
2022/05/08 03:21:22;;;;;;;8.87;6.97;;;;;;;9.28;71.75;100149.50;5071929;28;20277;-56
2022/05/08 03:23:49;;;;;;;10.17;8.10;;;;;;;9.17;71.25;100125.22;5071672;28;20604;-56
2022/05/08 03:26:19;;;;;;;12.93;8.03;;;;;;;9.35;70.99;100152.31;5069100;28;20871;-56
2022/05/08 03:28:47;;;;;;;10.33;6.87;;;;;;;9.39;70.76;100155.84;5071557;28;20559;-56
2022/05/08 03:31:13;;;;;;;8.60;7.00;;;;;;;9.43;70.40;100157.69;5071634;28;20674;-56
2022/05/08 03:33:42;;;;;;;11.90;8.30;;;;;;;9.64;70.00;100155.75;5071782;28;20298;-57
2022/05/08 03:36:11;;;;;;;11.93;9.10;;;;;;;9.75;69.55;100154.38;5071349;28;20653;-56
2022/05/08 03:38:42;;;;;;;11.03;7.97;;;;;;;9.83;69.18;100158.06;5071141;28;20280;-57
2022/05/08 03:41:09;;;;;;;12.07;7.57;;;;;;;9.82;69.07;100156.31;5063942;28;20560;-57
2022/05/08 03:43:37;;;;;;;12.10;8.23;;;;;;;9.82;69.16;100158.03;5068969;28;20277;-57
2022/05/08 03:46:04;;;;;;;12.27;8.53;;;;;;;9.93;69.23;100164.34;5066868;28;20196;-57
2022/05/08 03:48:31;;;;;;;10.77;7.77;;;;;;;9.94;69.00;100164.38;5066771;28;20282;-57
2022/05/08 03:50:59;;;;;;;12.53;8.30;;;;;;;9.89;69.15;100168.50;5068226;28;20217;-57
2022/05/08 03:53:26;;;;;;;16.27;8.87;;;;;;;9.89;69.27;100172.75;5070391;28;20196;-56
2022/05/08 03:55:53;;;;;;;14.93;8.50;;;;;;;9.82;68.99;100171.72;5070987;28;20196;-56
2022/05/08 03:58:20;;;;;;;10.03;7.77;;;;;;;9.91;69.22;100171.13;5071052;28;20280;-56
2022/05/08 04:00:47;;;;;;;10.53;8.00;;;;;;;10.02;68.73;100173.19;5070927;28;20207;-56
2022/05/08 04:03:13;;;;;;;16.80;9.00;;;;;;;10.08;68.55;100162.19;5071283;28;20192;-56
2022/05/08 04:05:40;;;;;;;10.53;7.43;;;;;;;9.97;68.12;100135.38;5070995;28;20195;-56
2022/05/08 04:08:09;;;;;;;11.70;8.67;;;;;;;10.14;68.57;100176.94;5070341;28;20206;-56
2022/05/08 04:10:36;;;;;;;16.07;8.47;;;;;;;10.18;68.40;100171.09;5070680;28;20205;-56
2022/05/08 04:13:03;;;;;;;13.73;8.20;;;;;;;10.25;68.35;100170.41;5070681;28;20611;-56
2022/05/08 04:18:14;;;;;;;10.63;8.67;;;;;;;10.06;68.88;100182.72;5070818;28;20253;-56
2022/05/08 04:20:41;;;;;;;8.97;7.60;;;;;;;9.99;68.76;100183.38;5070933;28;20978;-56
2022/05/08 04:25:54;;;;;;;12.10;8.70;;;;;;;9.81;68.10;100177.66;5070642;28;20197;-56
2022/05/08 04:28:21;;;;;;;12.77;8.90;;;;;;;10.00;68.04;100179.97;5070586;28;20198;-56
2022/05/08 04:30:49;;;;;;;10.77;7.90;;;;;;;9.95;67.68;100181.53;5070513;28;20199;-59
2022/05/08 04:33:16;;;;;;;15.00;8.07;;;;;;;9.86;67.93;100180.41;5069342;28;20199;-57
2022/05/08 04:35:43;;;;;;;13.00;7.77;;;;;;;10.00;68.43;100186.78;5065072;28;20192;-57
2022/05/08 04:38:12;;;;;;;8.63;7.73;;;;;;;9.81;67.92;100125.47;5070111;28;20226;-57
2022/05/08 04:40:43;;;;;;;13.57;8.03;;;;;;;10.22;67.32;100180.63;5070075;28;20245;-57
2022/05/08 04:43:23;;;;;;;11.02;8.55;;;;;;;10.10;68.07;100178.53;5069310;28;20438;-57
2022/05/08 04:45:54;;;;;;;10.93;7.97;;;;;;;10.06;67.60;100177.56;5069961;28;20187;-57
2022/05/08 04:48:21;;;;;;;10.37;7.50;;;;;;;10.12;67.95;100188.84;5069830;28;20191;-57
2022/05/08 04:50:48;;;;;;;9.77;7.70;;;;;;;10.04;68.56;100181.81;5070631;28;20229;-57
2022/05/08 04:53:16;;;;;;;8.77;7.30;;;;;;;10.02;68.53;100178.34;5068889;28;20198;-57
2022/05/08 04:55:43;;;;;;;10.27;8.33;;;;;;;10.00;68.73;100186.78;5067015;28;20198;-57
2022/05/08 04:58:09;;;;;;;11.23;7.77;;;;;;;9.97;68.92;100177.31;5069991;28;20712;-57
2022/05/08 05:00:36;;;;;;;10.90;7.87;;;;;;;10.00;68.98;100179.97;5070035;28;20202;-57
2022/05/08 05:03:03;;;;;;;10.07;7.90;;;;;;;10.20;68.77;100182.25;5070021;28;20195;-57
2022/05/08 05:05:30;;;;;;;10.00;7.20;;;;;;;10.17;69.08;100172.78;5069957;28;20200;-57
2022/05/08 05:07:57;;;;;;;11.37;7.77;;;;;;;10.25;68.79;100175.56;5068405;28;20242;-57
2022/05/08 05:10:26;;;;;;;13.37;9.13;;;;;;;10.30;69.42;100176.59;5064402;28;20264;-61
2022/05/08 05:12:54;;;;;;;10.57;7.83;;;;;;;10.28;68.54;100150.84;5063554;28;20202;-60
2022/05/08 05:15:24;;;;;;;9.93;7.70;;;;;;;10.64;68.11;100185.25;5069902;28;20570;-61
2022/05/08 05:17:51;;;;;;;13.97;8.47;;;;;;;10.68;67.56;100174.19;5070284;28;20222;-60
2022/05/08 05:20:18;;;;;;;9.40;7.57;;;;;;;10.86;68.08;100188.38;5064949;28;20250;-60
2022/05/08 05:22:45;;;;;;;8.60;7.57;;;;;;;10.97;67.87;100184.38;5069191;28;20632;-60
2022/05/08 05:25:12;;;;;;;9.80;8.17;;;;;;;10.98;68.36;100186.13;5069954;28;20195;-61
2022/05/08 05:27:40;;;;;;;9.37;7.53;;;;;;;11.14;67.42;100181.41;5069854;28;20270;-61
2022/05/08 05:30:09;;;;;;;10.13;7.47;;;;;;;11.43;67.12;100183.81;5069891;28;20203;-60
2022/05/08 05:32:35;;;;;;;11.70;8.67;;;;;;;11.44;67.05;100182.97;5069800;28;20666;-61
2022/05/08 05:35:02;;;;;;;11.43;8.37;;;;;;;11.22;67.94;100177.31;5069673;28;20195;-62
2022/05/08 05:37:29;;;;;;;10.00;8.13;;;;;;;11.59;67.11;100176.47;5069647;28;20660;-61
2022/05/08 05:39:56;;;;;;;13.57;8.00;;;;;;;11.83;66.42;100176.22;5069828;28;20199;-62
2022/05/08 05:42:23;;;;;;;12.45;8.90;;;;;;;12.08;66.00;100177.59;5069299;28;20434;-62
2022/05/08 05:44:51;;;;;;;9.67;8.37;;;;;;;12.40;65.21;100176.53;5069942;28;20226;-60
2022/05/08 05:50:02;;;;;;;17.67;8.23;;;;;;;12.77;63.86;100170.38;5069962;28;20190;-62
2022/05/08 05:52:29;;;;;;;12.70;8.07;;;;;;;12.89;63.46;100174.03;5069781;28;20199;-61
2022/05/08 05:54:56;;;;;;;10.60;8.13;;;;;;;12.83;63.45;100173.06;5069821;28;20215;-61
2022/05/08 05:57:23;;;;;;;14.73;8.23;;;;;;;13.01;63.39;100178.56;5069673;28;20196;-60
2022/05/08 05:59:51;;;;;;;12.50;7.30;;;;;;;13.14;62.71;100179.66;5069871;28;20211;-60
2022/05/08 06:02:18;;;;;;;14.17;7.83;;;;;;;13.29;62.16;100174.75;5068015;28;20620;-60
2022/05/08 06:04:44;;;;;;;11.90;9.13;;;;;;;13.48;61.25;100175.06;5068776;28;20444;-61
2022/05/08 06:07:11;;;;;;;9.60;8.17;;;;;;;13.67;60.66;100170.19;5069048;28;20569;-61
2022/05/08 06:09:38;;;;;;;9.83;8.27;;;;;;;13.79;59.94;100170.38;5069097;28;20215;-61
2022/05/08 06:12:06;;;;;;;11.50;8.07;;;;;;;13.90;59.78;100166.22;5069824;28;20187;-61
2022/05/08 06:14:33;;;;;;;11.60;7.47;;;;;;;13.98;60.03;100164.59;5069480;28;20191;-60
2022/05/08 06:17:01;;;;;;;12.07;6.93;;;;;;;13.93;59.96;100168.81;5072150;28;20192;-62
2022/05/08 06:19:28;;;;;;;8.70;7.37;;;;;;;13.57;61.43;100167.44;5072899;28;20192;-62
2022/05/08 06:21:54;;;;;;;10.13;7.23;;;;;;;13.63;61.35;100170.97;5072951;28;20223;-62
2022/05/08 06:24:21;;;;;;;7.43;6.60;;;;;;;13.63;61.63;100174.41;5073233;28;20198;-62
2022/05/08 06:26:48;;;;;;;8.30;6.47;;;;;;;13.65;60.93;100174.47;5072780;28;20192;-61
2022/05/08 06:29:15;;;;;;;9.13;7.00;;;;;;;13.66;61.68;100173.59;5072788;28;20249;-61
2022/05/08 06:31:42;;;;;;;7.67;6.83;;;;;;;13.83;62.26;100170.41;5072839;28;20690;-62
2022/05/08 06:34:10;;;;;;;8.77;6.73;;;;;;;14.00;62.03;100170.66;5072640;28;20191;-61
2022/05/08 06:36:37;;;;;;;11.90;6.60;;;;;;;14.09;61.56;100175.94;5070308;28;20215;-61
2022/05/08 06:39:03;;;;;;;8.43;7.00;;;;;;;13.94;61.05;100173.13;5072379;28;20238;-60
2022/05/08 06:41:30;;;;;;;9.50;7.43;;;;;;;14.08;61.29;100174.19;5073071;28;20203;-62
2022/05/08 06:43:57;;;;;;;15.00;8.60;;;;;;;14.11;61.38;100167.34;5072643;28;20197;-61
2022/05/08 06:46:24;;;;;;;10.30;7.70;;;;;;;14.09;60.84;100161.28;5072995;28;20184;-62
2022/05/08 06:48:51;;;;;;;9.70;6.97;;;;;;;13.79;61.12;100167.78;5072151;28;20219;-61
2022/05/08 06:51:19;;;;;;;9.20;7.73;;;;;;;13.77;61.27;100172.03;5072587;28;20654;-61
2022/05/08 06:53:46;;;;;;;10.80;7.77;;;;;;;13.72;60.79;100163.34;5072678;28;20192;-61
2022/05/08 06:56:13;;;;;;;9.40;7.90;;;;;;;13.60;61.58;100164.91;5071381;28;20728;-61
2022/05/08 07:01:38;;;;;;;10.97;8.13;;;;;;;14.02;60.57;100151.72;5061779;28;20289;-61
2022/05/08 07:04:07;;;;;;;9.60;8.13;;;;;;;14.09;60.71;100155.28;5072530;28;20201;-61
2022/05/08 07:06:37;;;;;;;8.03;7.23;;;;;;;14.27;60.71;100146.84;5072757;28;20196;-61
2022/05/08 07:09:04;;;;;;;13.83;7.80;;;;;;;14.46;60.27;100156.59;5072363;28;20314;-61
2022/05/08 07:11:31;;;;;;;10.53;7.93;;;;;;;14.43;59.27;100144.50;5072278;28;20661;-62
2022/05/08 07:13:58;;;;;;;12.63;8.00;;;;;;;14.69;59.40;100152.53;5072096;28;20763;-62
2022/05/08 07:16:25;;;;;;;9.27;7.10;;;;;;;14.67;58.02;100130.94;5072183;28;20201;-61
2022/05/08 07:18:52;;;;;;;9.80;7.97;;;;;;;14.95;57.55;100148.47;5072056;28;20195;-61
2022/05/08 07:21:19;;;;;;;14.60;9.33;;;;;;;15.13;57.57;100145.19;5071892;28;20187;-62
2022/05/08 07:23:48;;;;;;;9.80;7.63;;;;;;;15.17;57.56;100145.22;5072016;28;20205;-62
2022/05/08 07:26:15;;;;;;;8.13;7.27;;;;;;;14.81;57.33;100123.31;5071497;28;20253;-61
2022/05/08 07:28:42;;;;;;;9.80;8.10;;;;;;;14.98;57.35;100145.03;5071788;28;20856;-62
2022/05/08 07:31:09;;;;;;;10.80;8.33;;;;;;;15.21;56.67;100139.22;5067365;28;20258;-62
2022/05/08 07:33:37;;;;;;;9.13;6.90;;;;;;;15.17;55.68;100140.03;5069029;28;20189;-61
2022/05/08 07:36:12;;;;;;;8.93;7.63;;;;;;;15.13;55.77;100142.59;5071078;28;20244;-61
2022/05/08 07:38:39;;;;;;;11.70;8.00;;;;;;;15.41;55.08;100144.53;5069642;28;20215;-62
2022/05/08 07:41:08;;;;;;;10.10;7.03;;;;;;;15.59;54.04;100149.00;5070906;28;20282;-61
2022/05/08 07:43:35;;;;;;;11.63;6.70;;;;;;;15.35;53.38;100139.31;5070799;28;20198;-62
2022/05/08 07:46:02;;;;;;;10.00;6.63;;;;;;;15.41;52.69;100144.53;5069662;28;20666;-61
2022/05/08 07:48:29;;;;;;;9.70;7.20;;;;;;;15.51;51.96;100141.19;5070522;28;20658;-62
2022/05/08 07:50:59;;;;;;;10.97;7.17;;;;;;;15.62;50.84;100139.53;5069517;28;20196;-61
2022/05/08 07:53:26;;;;;;;10.73;7.43;;;;;;;15.30;52.50;100128.91;5071189;28;20624;-61
2022/05/08 07:55:53;;;;;;;7.83;7.03;;;;;;;15.57;52.29;100135.19;5071288;28;20234;-61
2022/05/08 07:58:22;;;;;;;13.30;8.47;;;;;;;15.75;52.47;100133.56;5066424;28;20561;-61
2022/05/08 08:00:53;;;;;;;9.13;6.30;;;;;;;15.72;51.15;100136.13;5068531;28;20207;-62
2022/05/08 08:03:20;;;;;;;7.68;6.95;;;;;;;15.60;49.38;100138.63;5068477;28;20896;-62
2022/05/08 08:05:47;;;;;;;7.47;6.63;;;;;;;15.68;50.25;100130.94;5068692;28;20194;-61
2022/05/08 08:08:15;;;;;;;7.77;6.60;;;;;;;15.93;50.96;100133.66;5068114;28;20342;-61
2022/05/08 08:10:42;;;;;;;11.20;7.30;;;;;;;16.09;50.52;100131.16;5070831;28;20203;-61
2022/05/08 08:13:09;;;;;;;8.53;7.63;;;;;;;16.14;51.13;100129.44;5070606;28;20223;-61
2022/05/08 08:15:37;;;;;;;12.52;7.65;;;;;;;15.94;51.29;100129.34;5069459;28;20444;-60
2022/05/08 08:18:04;;;;;;;8.13;7.33;;;;;;;15.94;50.60;100140.56;5070504;28;20313;-61
2022/05/08 08:20:31;;;;;;;10.13;7.00;;;;;;;16.00;50.38;100131.97;5069856;28;20661;-61
2022/05/08 08:22:58;;;;;;;8.63;6.43;;;;;;;15.66;49.85;100093.78;5070150;28;20585;-61
2022/05/08 08:25:24;;;;;;;9.07;7.07;;;;;;;15.97;49.42;100136.25;5070177;28;20667;-62
2022/05/08 08:27:51;;;;;;;8.77;6.40;;;;;;;16.05;49.42;100129.38;5069757;28;20180;-62
2022/05/08 08:30:18;;;;;;;7.40;6.47;;;;;;;16.03;49.23;100121.63;5070181;28;20215;-61
2022/05/08 08:32:47;;;;;;;8.27;6.63;;;;;;;16.20;50.67;100129.47;5065791;28;20186;-61
2022/05/08 08:35:13;;;;;;;11.07;7.07;;;;;;;16.21;51.76;100124.25;5069252;28;20751;-57
2022/05/08 08:37:40;;;;;;;8.57;7.68;;;;;;;16.46;52.46;100120.88;5068652;28;20454;-57
2022/05/08 08:40:08;;;;;;;9.50;7.00;;;;;;;16.55;50.87;100127.00;5063505;28;20200;-55
2022/05/08 08:42:40;;;;;;;8.87;6.87;;;;;;;16.63;51.28;100114.91;5049700;28;20199;-55
2022/05/08 08:47:55;;;;;;;7.13;6.20;;;;;;;17.06;48.67;100122.72;5058256;28;20215;-57
2022/05/08 08:50:25;;;;;;;7.85;6.57;;;;;;;17.01;47.57;100119.28;5060849;28;20470;-58
2022/05/08 08:52:52;;;;;;;9.27;7.17;;;;;;;17.15;48.30;100114.06;5069324;28;20201;-57
2022/05/08 08:55:20;;;;;;;8.57;6.30;;;;;;;17.28;48.52;100126.19;5070046;28;20200;-62
2022/05/08 08:57:47;;;;;;;11.20;9.33;;;;;;;17.38;47.22;100114.94;5063933;28;20211;-64
2022/05/08 09:00:15;;;;;;;11.00;6.93;;;;;;;17.42;47.03;100105.38;5069646;28;20188;-62
2022/05/08 09:02:42;;;;;;;13.00;8.43;;;;;;;17.45;47.67;100105.38;5069989;28;20198;-62
2022/05/08 09:05:11;;;;;;;8.97;5.93;;;;;;;17.53;45.83;100103.63;5069858;28;20225;-62
2022/05/08 09:07:45;;;;;;;6.93;6.23;;;;;;;17.35;46.61;100111.47;5069698;28;20233;-61
2022/05/08 09:10:18;;;;;;;7.10;6.40;;;;;;;17.11;46.96;100104.56;5069575;28;20291;-62
2022/05/08 09:13:00;;;;;;;10.73;7.53;;;;;;;17.25;47.18;100101.97;5069855;28;20203;-56
2022/05/08 09:15:29;;;;;;;10.37;6.93;;;;;;;17.41;47.74;100098.47;5069433;28;20653;-56
2022/05/08 09:17:57;;;;;;;9.93;6.53;;;;;;;17.55;47.17;100091.56;5068976;28;20191;-56
2022/05/08 09:20:30;;;;;;;9.40;7.10;;;;;;;17.58;47.15;100092.38;5069478;28;20211;-56
2022/05/08 09:23:13;;;;;;;12.27;7.57;;;;;;;17.67;46.24;100087.16;5069288;28;20259;-58
2022/05/08 09:25:48;;;;;;;8.63;6.03;;;;;;;17.77;46.23;100087.16;5069305;28;20912;-56
2022/05/08 09:28:16;;;;;;;8.23;6.30;;;;;;;17.79;46.17;100088.88;5069072;28;20197;-56
2022/05/08 09:31:00;;;;;;;11.07;6.17;;;;;;;17.43;47.46;100070.75;5069436;28;20631;-56
2022/05/08 09:33:29;;;;;;;6.60;5.50;;;;;;;17.60;47.69;100082.88;5069293;28;20195;-57
2022/05/08 09:35:58;;;;;;;8.87;5.43;;;;;;;17.47;47.85;100080.28;5069330;28;20260;-57
2022/05/08 09:38:41;;;;;;;7.67;5.80;;;;;;;17.67;48.36;100081.09;5069188;28;20270;-56
2022/05/08 09:41:09;;;;;;;9.43;5.83;;;;;;;17.53;47.79;100078.53;5069561;28;20203;-56
2022/05/08 09:43:36;;;;;;;10.40;6.30;;;;;;;17.64;48.02;100078.50;5069357;28;20218;-57
2022/05/08 09:46:04;;;;;;;9.30;5.67;;;;;;;17.87;47.57;100079.31;5069459;28;20202;-56
2022/05/08 09:48:32;;;;;;;6.93;6.03;;;;;;;18.01;47.77;100072.31;5069062;28;20433;-57
2022/05/08 09:51:02;;;;;;;9.13;5.67;;;;;;;18.18;46.48;100064.44;5072235;28;20286;-57
2022/05/08 09:53:30;;;;;;;12.37;7.50;;;;;;;18.34;46.30;100070.41;5072929;28;20198;-57
2022/05/08 09:55:58;;;;;;;10.57;5.93;;;;;;;18.41;45.99;100062.56;5071243;28;20433;-57
2022/05/08 09:58:26;;;;;;;6.97;5.23;;;;;;;18.28;46.93;100068.72;5054982;28;20196;-60
2022/05/08 10:00:54;;;;;;;8.60;5.60;;;;;;;18.04;46.58;100051.50;5073037;28;20187;-57
2022/05/08 10:03:21;;;;;;;5.10;4.70;;;;;;;17.95;46.15;100050.66;5072906;28;20692;-57
2022/05/08 10:05:49;;;;;;;7.10;5.10;;;;;;;18.05;46.08;100050.63;5072877;28;20348;-57
2022/05/08 10:08:20;;;;;;;5.50;4.80;;;;;;;18.32;47.12;100048.75;5072929;28;20203;-57
2022/05/08 10:14:00;;;;;;;7.83;5.70;;;;;;;18.65;46.25;100043.34;5072923;28;20206;-58
2022/05/08 10:16:46;;;;;;;6.07;5.43;;;;;;;18.95;46.14;100037.03;5073123;28;20191;-56
2022/05/08 10:19:58;;;;;;;8.50;6.13;;;;;;;19.13;45.28;100040.31;5072662;28;20642;-58
2022/05/08 10:22:25;;;;;;;7.57;6.00;;;;;;;18.84;45.41;100032.75;5072546;28;20606;-56
2022/05/08 10:24:56;;;;;;;8.80;5.43;;;;;;;18.92;45.51;100032.72;5072544;28;20635;-58
2022/05/08 10:27:26;;;;;;;6.50;4.67;;;;;;;18.60;45.67;100026.88;5072438;28;20257;-56
2022/05/08 10:30:26;;;;;;;5.13;4.63;;;;;;;18.38;45.47;99966.28;5072428;28;20215;-57
2022/05/08 10:32:53;;;;;;;7.43;5.17;;;;;;;18.82;45.90;100023.22;5030185;28;20250;-58
2022/05/08 10:35:21;;;;;;;6.97;5.77;;;;;;;18.92;45.37;100019.69;5030090;28;20193;-57
2022/05/08 10:37:50;;;;;;;9.73;5.87;;;;;;;18.78;45.50;100012.00;5049256;28;20310;-57
2022/05/08 10:40:38;;;;;;;8.80;5.60;;;;;;;18.93;45.21;100008.38;5072030;28;20511;-57
2022/05/08 10:43:28;;;;;;;9.07;6.50;;;;;;;19.27;44.78;100012.38;5072332;28;20287;-57
2022/05/08 10:45:56;;;;;;;5.90;5.03;;;;;;;19.52;44.54;100004.31;5071720;28;20231;-58
2022/05/08 10:48:25;;;;;;;6.80;5.47;;;;;;;19.69;43.49;100018.03;5072068;28;20192;-57
2022/05/08 10:50:54;;;;;;;7.40;5.83;;;;;;;19.84;43.04;100012.59;5071536;28;20223;-58
2022/05/08 10:53:23;;;;;;;7.77;5.60;;;;;;;19.67;43.06;100007.59;5069864;28;20192;-57
2022/05/08 10:55:51;;;;;;;11.33;7.27;;;;;;;19.69;43.72;99998.03;5067519;28;20199;-57
2022/05/08 10:58:18;;;;;;;8.20;6.43;;;;;;;19.77;43.66;100003.13;5068538;28;20197;-57
2022/05/08 11:00:45;;;;;;;7.97;5.63;;;;;;;19.91;43.50;99996.00;5071364;28;20566;-58
2022/05/08 11:03:12;;;;;;;8.65;5.65;;;;;;;20.07;42.51;99994.03;5070297;28;20445;-57
2022/05/08 11:05:39;;;;;;;5.70;5.10;;;;;;;20.07;42.24;99984.47;5069045;28;20253;-57
2022/05/08 11:08:10;;;;;;;9.53;6.13;;;;;;;20.19;42.63;99975.59;5071295;28;20191;-57
2022/05/08 11:10:38;;;;;;;7.23;6.03;;;;;;;20.24;42.38;99956.41;5071292;28;20241;-63
2022/05/08 11:13:09;;;;;;;6.77;5.17;;;;;;;20.24;42.57;99982.50;5071229;28;20642;-63
2022/05/08 11:15:37;;;;;;;8.67;6.17;;;;;;;20.44;42.71;99975.22;5071028;28;20237;-64
2022/05/08 11:18:09;;;;;;;9.33;5.40;;;;;;;20.53;42.39;99980.28;5070886;28;20183;-62
2022/05/08 11:20:37;;;;;;;7.53;5.27;;;;;;;20.55;42.01;99975.91;5070915;28;20188;-62
2022/05/08 11:23:05;;;;;;;6.97;5.70;;;;;;;20.66;42.55;99967.88;5071204;28;20196;-62
2022/05/08 11:25:33;;;;;;;6.83;5.20;;;;;;;20.80;42.27;99970.25;5071253;28;20709;-62
2022/05/08 11:28:01;;;;;;;6.37;5.00;;;;;;;20.44;42.61;99963.91;5071422;28;20199;-63
2022/05/08 11:30:35;;;;;;;5.53;4.70;;;;;;;20.25;43.85;99975.53;5070823;28;20223;-62
2022/05/08 11:36:08;;;;;;;5.07;4.57;;;;;;;20.36;43.33;99958.81;5071349;28;20191;-62
2022/05/08 11:38:43;;;;;;;8.17;4.87;;;;;;;20.30;43.62;99952.84;5070858;28;20222;-63
2022/05/08 11:41:11;;;;;;;6.27;5.27;;;;;;;20.50;43.79;99956.84;5070273;28;20183;-63
2022/05/08 11:43:43;;;;;;;6.10;5.40;;;;;;;20.71;43.42;99950.38;5070158;28;20192;-63
2022/05/08 11:46:16;;;;;;;9.07;5.47;;;;;;;20.86;42.64;99939.69;5070245;28;20203;-63
2022/05/08 11:48:44;;;;;;;6.70;5.47;;;;;;;20.92;42.72;99944.78;5069781;28;20198;-57
2022/05/08 11:51:11;;;;;;;7.30;6.07;;;;;;;21.04;42.62;99938.47;5069717;28;20216;-63
2022/05/08 11:53:43;;;;;;;8.83;5.07;;;;;;;21.17;42.53;99929.53;5070195;28;20309;-57
2022/05/08 11:56:27;;;;;;;7.03;5.97;;;;;;;21.37;42.11;99931.75;5070407;28;20195;-58